sensor_id;sensor_type;location;lat;lon;timestamp;P1;durP1;ratioP1;P2;durP2;ratioP2
58071;SDS011;60383;46.626;18.866;2023-02-19T00:01:18;29.67;;;19.17;;
58071;SDS011;60383;46.626;18.866;2023-02-19T00:03:49;32.33;;;20.10;;
58071;SDS011;60383;46.626;18.866;2023-02-19T00:06:23;31.23;;;19.90;;
58071;SDS011;60383;46.626;18.866;2023-02-19T00:08:50;31.48;;;20.15;;
58071;SDS011;60383;46.626;18.866;2023-02-19T00:11:19;34.10;;;20.15;;
58071;SDS011;60383;46.626;18.866;2023-02-19T00:13:48;29.83;;;19.75;;
58071;SDS011;60383;46.626;18.866;2023-02-19T00:16:19;30.27;;;19.75;;
58071;SDS011;60383;46.626;18.866;2023-02-19T00:18:47;32.42;;;20.98;;
58071;SDS011;60383;46.626;18.866;2023-02-19T00:21:13;30.75;;;20.02;;
58071;SDS011;60383;46.626;18.866;2023-02-19T00:23:39;33.42;;;19.70;;
58071;SDS011;60383;46.626;18.866;2023-02-19T00:26:05;31.30;;;19.70;;
58071;SDS011;60383;46.626;18.866;2023-02-19T00:28:32;33.50;;;21.05;;
58071;SDS011;60383;46.626;18.866;2023-02-19T00:31:09;32.17;;;19.90;;
58071;SDS011;60383;46.626;18.866;2023-02-19T00:33:40;29.20;;;20.10;;
58071;SDS011;60383;46.626;18.866;2023-02-19T00:36:06;31.02;;;19.55;;
58071;SDS011;60383;46.626;18.866;2023-02-19T00:38:34;30.45;;;19.25;;
58071;SDS011;60383;46.626;18.866;2023-02-19T00:41:01;30.02;;;18.42;;
58071;SDS011;60383;46.626;18.866;2023-02-19T00:43:43;32.67;;;20.38;;
58071;SDS011;60383;46.626;18.866;2023-02-19T00:46:14;27.90;;;18.92;;
58071;SDS011;60383;46.626;18.866;2023-02-19T00:48:40;31.30;;;19.85;;
58071;SDS011;60383;46.626;18.866;2023-02-19T00:51:05;32.13;;;19.13;;
58071;SDS011;60383;46.626;18.866;2023-02-19T00:53:31;31.27;;;19.67;;
58071;SDS011;60383;46.626;18.866;2023-02-19T00:55:56;29.58;;;18.40;;
58071;SDS011;60383;46.626;18.866;2023-02-19T00:58:22;33.63;;;18.85;;
58071;SDS011;60383;46.626;18.866;2023-02-19T01:00:47;32.47;;;20.77;;
58071;SDS011;60383;46.626;18.866;2023-02-19T01:03:13;32.85;;;21.55;;
58071;SDS011;60383;46.626;18.866;2023-02-19T01:05:38;29.80;;;20.08;;
58071;SDS011;60383;46.626;18.866;2023-02-19T01:08:03;31.33;;;20.98;;
58071;SDS011;60383;46.626;18.866;2023-02-19T01:10:29;32.92;;;21.13;;
58071;SDS011;60383;46.626;18.866;2023-02-19T01:12:54;31.95;;;20.15;;
58071;SDS011;60383;46.626;18.866;2023-02-19T01:15:20;33.20;;;20.73;;
58071;SDS011;60383;46.626;18.866;2023-02-19T01:17:45;32.28;;;20.20;;
58071;SDS011;60383;46.626;18.866;2023-02-19T01:20:10;34.88;;;20.83;;
58071;SDS011;60383;46.626;18.866;2023-02-19T01:22:36;32.63;;;20.48;;
58071;SDS011;60383;46.626;18.866;2023-02-19T01:25:01;34.13;;;19.83;;
58071;SDS011;60383;46.626;18.866;2023-02-19T01:27:27;30.65;;;18.80;;
58071;SDS011;60383;46.626;18.866;2023-02-19T01:29:52;30.05;;;19.67;;
58071;SDS011;60383;46.626;18.866;2023-02-19T01:32:18;32.22;;;20.27;;
58071;SDS011;60383;46.626;18.866;2023-02-19T01:34:43;31.05;;;20.02;;
58071;SDS011;60383;46.626;18.866;2023-02-19T01:37:08;29.45;;;18.98;;
58071;SDS011;60383;46.626;18.866;2023-02-19T01:39:36;32.22;;;20.10;;
58071;SDS011;60383;46.626;18.866;2023-02-19T01:42:03;33.70;;;20.23;;
58071;SDS011;60383;46.626;18.866;2023-02-19T01:46:55;34.38;;;20.25;;
58071;SDS011;60383;46.626;18.866;2023-02-19T01:49:25;32.70;;;20.50;;
58071;SDS011;60383;46.626;18.866;2023-02-19T01:51:54;34.22;;;21.20;;
58071;SDS011;60383;46.626;18.866;2023-02-19T01:54:25;35.67;;;21.90;;
58071;SDS011;60383;46.626;18.866;2023-02-19T01:56:54;32.65;;;21.42;;
58071;SDS011;60383;46.626;18.866;2023-02-19T01:59:21;29.98;;;20.17;;
58071;SDS011;60383;46.626;18.866;2023-02-19T02:01:46;31.85;;;20.52;;
58071;SDS011;60383;46.626;18.866;2023-02-19T02:04:13;34.03;;;21.35;;
58071;SDS011;60383;46.626;18.866;2023-02-19T02:06:49;31.73;;;19.60;;
58071;SDS011;60383;46.626;18.866;2023-02-19T02:09:20;34.03;;;19.90;;
58071;SDS011;60383;46.626;18.866;2023-02-19T02:12:08;35.22;;;20.48;;
58071;SDS011;60383;46.626;18.866;2023-02-19T02:14:34;37.45;;;22.95;;
58071;SDS011;60383;46.626;18.866;2023-02-19T02:17:12;35.25;;;21.80;;
58071;SDS011;60383;46.626;18.866;2023-02-19T02:22:43;33.78;;;21.55;;
58071;SDS011;60383;46.626;18.866;2023-02-19T02:25:21;37.53;;;22.30;;
58071;SDS011;60383;46.626;18.866;2023-02-19T02:36:06;32.58;;;21.67;;
58071;SDS011;60383;46.626;18.866;2023-02-19T02:38:38;34.58;;;22.45;;
58071;SDS011;60383;46.626;18.866;2023-02-19T02:41:06;35.03;;;21.15;;
58071;SDS011;60383;46.626;18.866;2023-02-19T02:43:33;32.60;;;21.00;;
58071;SDS011;60383;46.626;18.866;2023-02-19T02:45:58;32.22;;;20.45;;
58071;SDS011;60383;46.626;18.866;2023-02-19T02:51:09;32.22;;;19.73;;
58071;SDS011;60383;46.626;18.866;2023-02-19T02:53:47;31.33;;;20.35;;
58071;SDS011;60383;46.626;18.866;2023-02-19T02:56:31;28.98;;;19.90;;
58071;SDS011;60383;46.626;18.866;2023-02-19T02:58:59;29.00;;;18.98;;
58071;SDS011;60383;46.626;18.866;2023-02-19T03:01:32;31.90;;;19.60;;
58071;SDS011;60383;46.626;18.866;2023-02-19T03:06:54;31.58;;;19.48;;
58071;SDS011;60383;46.626;18.866;2023-02-19T03:09:29;30.45;;;20.73;;
58071;SDS011;60383;46.626;18.866;2023-02-19T03:12:05;31.23;;;19.55;;
58071;SDS011;60383;46.626;18.866;2023-02-19T03:15:00;30.38;;;19.40;;
58071;SDS011;60383;46.626;18.866;2023-02-19T03:18:07;29.17;;;19.02;;
58071;SDS011;60383;46.626;18.866;2023-02-19T03:20:55;27.48;;;18.35;;
58071;SDS011;60383;46.626;18.866;2023-02-19T03:23:22;26.58;;;17.77;;
58071;SDS011;60383;46.626;18.866;2023-02-19T03:26:12;27.90;;;17.40;;
58071;SDS011;60383;46.626;18.866;2023-02-19T03:28:39;30.17;;;18.30;;
58071;SDS011;60383;46.626;18.866;2023-02-19T03:31:27;29.90;;;19.48;;
58071;SDS011;60383;46.626;18.866;2023-02-19T03:33:56;28.00;;;17.67;;
58071;SDS011;60383;46.626;18.866;2023-02-19T03:36:26;25.13;;;16.17;;
58071;SDS011;60383;46.626;18.866;2023-02-19T03:39:01;28.02;;;18.85;;
58071;SDS011;60383;46.626;18.866;2023-02-19T03:41:32;25.08;;;15.88;;
58071;SDS011;60383;46.626;18.866;2023-02-19T03:47:06;24.52;;;16.27;;
58071;SDS011;60383;46.626;18.866;2023-02-19T03:52:40;24.70;;;16.35;;
58071;SDS011;60383;46.626;18.866;2023-02-19T03:55:15;24.60;;;14.93;;
58071;SDS011;60383;46.626;18.866;2023-02-19T04:00:40;23.77;;;15.15;;
58071;SDS011;60383;46.626;18.866;2023-02-19T04:05:47;23.67;;;15.07;;
58071;SDS011;60383;46.626;18.866;2023-02-19T04:08:18;23.48;;;14.95;;
58071;SDS011;60383;46.626;18.866;2023-02-19T04:10:46;22.30;;;15.52;;
58071;SDS011;60383;46.626;18.866;2023-02-19T04:13:18;24.67;;;15.77;;
58071;SDS011;60383;46.626;18.866;2023-02-19T04:15:48;22.17;;;14.90;;
58071;SDS011;60383;46.626;18.866;2023-02-19T04:18:24;23.45;;;14.45;;
58071;SDS011;60383;46.626;18.866;2023-02-19T04:20:52;21.20;;;14.25;;
58071;SDS011;60383;46.626;18.866;2023-02-19T04:23:19;22.27;;;15.82;;
58071;SDS011;60383;46.626;18.866;2023-02-19T04:25:49;24.00;;;15.45;;
58071;SDS011;60383;46.626;18.866;2023-02-19T04:28:18;22.23;;;15.05;;
58071;SDS011;60383;46.626;18.866;2023-02-19T04:30:44;25.58;;;17.20;;
58071;SDS011;60383;46.626;18.866;2023-02-19T04:33:09;23.33;;;15.20;;
58071;SDS011;60383;46.626;18.866;2023-02-19T04:35:35;22.23;;;15.02;;
58071;SDS011;60383;46.626;18.866;2023-02-19T04:38:00;22.77;;;15.25;;
58071;SDS011;60383;46.626;18.866;2023-02-19T04:40:26;21.92;;;14.15;;
58071;SDS011;60383;46.626;18.866;2023-02-19T04:42:51;23.15;;;15.02;;
58071;SDS011;60383;46.626;18.866;2023-02-19T04:45:17;25.52;;;17.95;;
58071;SDS011;60383;46.626;18.866;2023-02-19T04:47:42;22.13;;;14.90;;
58071;SDS011;60383;46.626;18.866;2023-02-19T04:50:08;20.50;;;14.27;;
58071;SDS011;60383;46.626;18.866;2023-02-19T04:52:34;22.88;;;14.60;;
58071;SDS011;60383;46.626;18.866;2023-02-19T04:55:00;20.42;;;13.75;;
58071;SDS011;60383;46.626;18.866;2023-02-19T04:57:25;20.50;;;14.23;;
58071;SDS011;60383;46.626;18.866;2023-02-19T04:59:51;20.38;;;14.60;;
58071;SDS011;60383;46.626;18.866;2023-02-19T05:02:16;23.38;;;14.80;;
58071;SDS011;60383;46.626;18.866;2023-02-19T05:04:42;18.92;;;12.25;;
58071;SDS011;60383;46.626;18.866;2023-02-19T05:07:07;22.52;;;14.52;;
58071;SDS011;60383;46.626;18.866;2023-02-19T05:09:33;19.85;;;14.10;;
58071;SDS011;60383;46.626;18.866;2023-02-19T05:11:58;22.73;;;15.27;;
58071;SDS011;60383;46.626;18.866;2023-02-19T05:14:24;21.98;;;15.30;;
58071;SDS011;60383;46.626;18.866;2023-02-19T05:16:49;22.67;;;16.02;;
58071;SDS011;60383;46.626;18.866;2023-02-19T05:19:15;22.73;;;14.75;;
58071;SDS011;60383;46.626;18.866;2023-02-19T05:21:40;20.50;;;13.65;;
58071;SDS011;60383;46.626;18.866;2023-02-19T05:24:06;20.13;;;13.95;;
58071;SDS011;60383;46.626;18.866;2023-02-19T05:26:31;19.75;;;13.57;;
58071;SDS011;60383;46.626;18.866;2023-02-19T05:28:58;22.60;;;14.80;;
58071;SDS011;60383;46.626;18.866;2023-02-19T05:31:23;21.73;;;14.32;;
58071;SDS011;60383;46.626;18.866;2023-02-19T05:33:49;22.15;;;14.80;;
58071;SDS011;60383;46.626;18.866;2023-02-19T05:36:17;21.88;;;14.45;;
58071;SDS011;60383;46.626;18.866;2023-02-19T05:38:45;21.05;;;14.90;;
58071;SDS011;60383;46.626;18.866;2023-02-19T05:41:11;20.73;;;14.45;;
58071;SDS011;60383;46.626;18.866;2023-02-19T05:43:42;23.95;;;15.77;;
58071;SDS011;60383;46.626;18.866;2023-02-19T05:46:12;22.85;;;15.18;;
58071;SDS011;60383;46.626;18.866;2023-02-19T05:48:39;22.83;;;14.55;;
58071;SDS011;60383;46.626;18.866;2023-02-19T05:51:09;21.00;;;15.07;;
58071;SDS011;60383;46.626;18.866;2023-02-19T05:53:36;23.33;;;15.18;;
58071;SDS011;60383;46.626;18.866;2023-02-19T05:56:02;21.92;;;14.27;;
58071;SDS011;60383;46.626;18.866;2023-02-19T05:58:28;22.08;;;14.18;;
58071;SDS011;60383;46.626;18.866;2023-02-19T06:00:53;21.90;;;14.18;;
58071;SDS011;60383;46.626;18.866;2023-02-19T06:03:20;24.98;;;16.25;;
58071;SDS011;60383;46.626;18.866;2023-02-19T06:05:46;21.50;;;13.88;;
58071;SDS011;60383;46.626;18.866;2023-02-19T06:08:12;21.02;;;13.60;;
58071;SDS011;60383;46.626;18.866;2023-02-19T06:10:39;22.65;;;13.85;;
58071;SDS011;60383;46.626;18.866;2023-02-19T06:13:07;20.52;;;14.05;;
58071;SDS011;60383;46.626;18.866;2023-02-19T06:15:34;19.27;;;13.82;;
58071;SDS011;60383;46.626;18.866;2023-02-19T06:18:01;21.70;;;14.93;;
58071;SDS011;60383;46.626;18.866;2023-02-19T06:20:27;23.60;;;15.35;;
58071;SDS011;60383;46.626;18.866;2023-02-19T06:22:52;24.23;;;15.60;;
58071;SDS011;60383;46.626;18.866;2023-02-19T06:25:18;24.15;;;14.95;;
58071;SDS011;60383;46.626;18.866;2023-02-19T06:27:44;22.02;;;14.60;;
58071;SDS011;60383;46.626;18.866;2023-02-19T06:30:10;25.65;;;15.55;;
58071;SDS011;60383;46.626;18.866;2023-02-19T06:32:36;25.50;;;15.52;;
58071;SDS011;60383;46.626;18.866;2023-02-19T06:35:01;25.45;;;15.88;;
58071;SDS011;60383;46.626;18.866;2023-02-19T06:37:27;24.63;;;16.40;;
58071;SDS011;60383;46.626;18.866;2023-02-19T06:39:53;28.30;;;16.73;;
58071;SDS011;60383;46.626;18.866;2023-02-19T06:42:18;27.00;;;16.95;;
58071;SDS011;60383;46.626;18.866;2023-02-19T06:44:44;26.27;;;16.67;;
58071;SDS011;60383;46.626;18.866;2023-02-19T06:47:09;23.90;;;16.17;;
58071;SDS011;60383;46.626;18.866;2023-02-19T06:49:35;27.48;;;16.70;;
58071;SDS011;60383;46.626;18.866;2023-02-19T06:52:00;23.00;;;13.50;;
58071;SDS011;60383;46.626;18.866;2023-02-19T06:54:27;27.13;;;15.95;;
58071;SDS011;60383;46.626;18.866;2023-02-19T06:56:53;25.70;;;16.50;;
58071;SDS011;60383;46.626;18.866;2023-02-19T06:59:18;26.88;;;16.35;;
58071;SDS011;60383;46.626;18.866;2023-02-19T07:01:44;26.75;;;16.88;;
58071;SDS011;60383;46.626;18.866;2023-02-19T07:04:10;25.77;;;16.33;;
58071;SDS011;60383;46.626;18.866;2023-02-19T07:06:35;24.60;;;15.98;;
58071;SDS011;60383;46.626;18.866;2023-02-19T07:09:02;28.90;;;17.50;;
58071;SDS011;60383;46.626;18.866;2023-02-19T07:11:29;25.65;;;17.40;;
58071;SDS011;60383;46.626;18.866;2023-02-19T07:13:58;27.27;;;18.27;;
58071;SDS011;60383;46.626;18.866;2023-02-19T07:16:25;26.52;;;16.52;;
58071;SDS011;60383;46.626;18.866;2023-02-19T07:18:51;26.40;;;16.27;;
58071;SDS011;60383;46.626;18.866;2023-02-19T07:21:19;26.83;;;17.25;;
58071;SDS011;60383;46.626;18.866;2023-02-19T07:23:45;27.98;;;16.75;;
58071;SDS011;60383;46.626;18.866;2023-02-19T07:26:11;28.20;;;17.48;;
58071;SDS011;60383;46.626;18.866;2023-02-19T07:28:39;28.15;;;17.50;;
58071;SDS011;60383;46.626;18.866;2023-02-19T07:31:05;26.70;;;16.92;;
58071;SDS011;60383;46.626;18.866;2023-02-19T07:33:30;25.63;;;17.15;;
58071;SDS011;60383;46.626;18.866;2023-02-19T07:35:56;27.30;;;18.23;;
58071;SDS011;60383;46.626;18.866;2023-02-19T07:38:22;30.70;;;17.98;;
58071;SDS011;60383;46.626;18.866;2023-02-19T07:40:52;27.90;;;17.65;;
58071;SDS011;60383;46.626;18.866;2023-02-19T07:45:44;26.17;;;16.38;;
58071;SDS011;60383;46.626;18.866;2023-02-19T07:48:10;26.95;;;17.25;;
58071;SDS011;60383;46.626;18.866;2023-02-19T07:50:36;27.17;;;16.33;;
58071;SDS011;60383;46.626;18.866;2023-02-19T07:53:01;28.00;;;18.25;;
58071;SDS011;60383;46.626;18.866;2023-02-19T07:55:26;30.25;;;18.70;;
58071;SDS011;60383;46.626;18.866;2023-02-19T07:57:52;29.15;;;18.92;;
58071;SDS011;60383;46.626;18.866;2023-02-19T08:00:17;27.92;;;17.73;;
58071;SDS011;60383;46.626;18.866;2023-02-19T08:02:44;29.40;;;18.48;;
58071;SDS011;60383;46.626;18.866;2023-02-19T08:05:29;31.95;;;18.23;;
58071;SDS011;60383;46.626;18.866;2023-02-19T08:07:57;28.90;;;17.83;;
58071;SDS011;60383;46.626;18.866;2023-02-19T08:10:23;28.40;;;17.30;;
58071;SDS011;60383;46.626;18.866;2023-02-19T08:13:09;30.08;;;18.88;;
58071;SDS011;60383;46.626;18.866;2023-02-19T08:18:24;26.75;;;14.63;;
58071;SDS011;60383;46.626;18.866;2023-02-19T08:20:51;29.33;;;18.45;;
58071;SDS011;60383;46.626;18.866;2023-02-19T08:23:18;29.52;;;18.70;;
58071;SDS011;60383;46.626;18.866;2023-02-19T08:25:47;29.73;;;18.05;;
58071;SDS011;60383;46.626;18.866;2023-02-19T08:28:13;27.27;;;17.80;;
58071;SDS011;60383;46.626;18.866;2023-02-19T08:30:40;26.75;;;17.42;;
58071;SDS011;60383;46.626;18.866;2023-02-19T08:33:08;29.13;;;18.77;;
58071;SDS011;60383;46.626;18.866;2023-02-19T08:35:35;24.63;;;14.45;;
58071;SDS011;60383;46.626;18.866;2023-02-19T08:38:01;29.50;;;16.48;;
58071;SDS011;60383;46.626;18.866;2023-02-19T08:40:27;28.15;;;17.70;;
58071;SDS011;60383;46.626;18.866;2023-02-19T08:42:53;29.80;;;19.67;;
58071;SDS011;60383;46.626;18.866;2023-02-19T08:45:18;29.73;;;18.33;;
58071;SDS011;60383;46.626;18.866;2023-02-19T08:47:44;29.70;;;18.25;;
58071;SDS011;60383;46.626;18.866;2023-02-19T08:50:10;42.20;;;23.55;;
58071;SDS011;60383;46.626;18.866;2023-02-19T08:52:36;28.38;;;16.33;;
58071;SDS011;60383;46.626;18.866;2023-02-19T08:55:05;29.63;;;17.10;;
58071;SDS011;60383;46.626;18.866;2023-02-19T08:57:30;32.72;;;19.83;;
58071;SDS011;60383;46.626;18.866;2023-02-19T08:59:56;28.40;;;16.75;;
58071;SDS011;60383;46.626;18.866;2023-02-19T09:02:22;28.23;;;17.08;;
58071;SDS011;60383;46.626;18.866;2023-02-19T09:04:48;27.27;;;16.55;;
58071;SDS011;60383;46.626;18.866;2023-02-19T09:07:14;29.48;;;18.63;;
58071;SDS011;60383;46.626;18.866;2023-02-19T09:09:40;29.48;;;15.68;;
58071;SDS011;60383;46.626;18.866;2023-02-19T09:12:06;30.23;;;18.00;;
58071;SDS011;60383;46.626;18.866;2023-02-19T09:14:33;29.92;;;18.85;;
58071;SDS011;60383;46.626;18.866;2023-02-19T09:17:00;22.27;;;12.93;;
58071;SDS011;60383;46.626;18.866;2023-02-19T09:19:27;26.25;;;15.63;;
58071;SDS011;60383;46.626;18.866;2023-02-19T09:21:52;26.92;;;16.58;;
58071;SDS011;60383;46.626;18.866;2023-02-19T09:24:18;26.67;;;18.23;;
58071;SDS011;60383;46.626;18.866;2023-02-19T09:26:44;29.50;;;20.05;;
58071;SDS011;60383;46.626;18.866;2023-02-19T09:29:12;38.10;;;22.88;;
58071;SDS011;60383;46.626;18.866;2023-02-19T09:31:38;29.48;;;18.40;;
58071;SDS011;60383;46.626;18.866;2023-02-19T09:34:04;20.65;;;13.45;;
58071;SDS011;60383;46.626;18.866;2023-02-19T09:36:29;24.83;;;16.58;;
58071;SDS011;60383;46.626;18.866;2023-02-19T09:38:56;23.50;;;14.93;;
58071;SDS011;60383;46.626;18.866;2023-02-19T09:44:00;24.58;;;15.48;;
58071;SDS011;60383;46.626;18.866;2023-02-19T09:46:31;24.75;;;14.90;;
58071;SDS011;60383;46.626;18.866;2023-02-19T09:49:04;24.83;;;14.70;;
58071;SDS011;60383;46.626;18.866;2023-02-19T09:51:51;33.17;;;17.92;;
58071;SDS011;60383;46.626;18.866;2023-02-19T09:54:26;26.27;;;16.38;;
58071;SDS011;60383;46.626;18.866;2023-02-19T09:56:55;25.27;;;15.65;;
58071;SDS011;60383;46.626;18.866;2023-02-19T09:59:28;22.92;;;14.27;;
58071;SDS011;60383;46.626;18.866;2023-02-19T10:02:10;25.75;;;16.35;;
58071;SDS011;60383;46.626;18.866;2023-02-19T10:04:38;24.55;;;17.10;;
58071;SDS011;60383;46.626;18.866;2023-02-19T10:07:09;23.20;;;16.38;;
58071;SDS011;60383;46.626;18.866;2023-02-19T10:09:37;23.63;;;15.73;;
58071;SDS011;60383;46.626;18.866;2023-02-19T10:12:03;23.85;;;16.10;;
58071;SDS011;60383;46.626;18.866;2023-02-19T10:14:39;22.67;;;12.88;;
58071;SDS011;60383;46.626;18.866;2023-02-19T10:17:08;20.98;;;13.80;;
58071;SDS011;60383;46.626;18.866;2023-02-19T10:19:48;21.88;;;14.52;;
58071;SDS011;60383;46.626;18.866;2023-02-19T10:22:15;25.23;;;16.48;;
58071;SDS011;60383;46.626;18.866;2023-02-19T10:24:41;19.85;;;12.98;;
58071;SDS011;60383;46.626;18.866;2023-02-19T10:27:12;23.33;;;14.82;;
58071;SDS011;60383;46.626;18.866;2023-02-19T10:29:38;22.65;;;14.13;;
58071;SDS011;60383;46.626;18.866;2023-02-19T10:32:23;22.63;;;15.02;;
58071;SDS011;60383;46.626;18.866;2023-02-19T10:35:08;19.75;;;13.80;;
58071;SDS011;60383;46.626;18.866;2023-02-19T10:37:44;24.05;;;14.70;;
58071;SDS011;60383;46.626;18.866;2023-02-19T10:40:15;21.60;;;14.18;;
58071;SDS011;60383;46.626;18.866;2023-02-19T10:42:46;26.83;;;15.25;;
58071;SDS011;60383;46.626;18.866;2023-02-19T10:45:21;21.88;;;15.90;;
58071;SDS011;60383;46.626;18.866;2023-02-19T10:47:48;23.65;;;15.45;;
58071;SDS011;60383;46.626;18.866;2023-02-19T10:50:19;23.65;;;15.95;;
58071;SDS011;60383;46.626;18.866;2023-02-19T10:52:55;23.73;;;16.40;;
58071;SDS011;60383;46.626;18.866;2023-02-19T10:55:29;21.73;;;16.05;;
58071;SDS011;60383;46.626;18.866;2023-02-19T10:57:58;24.40;;;15.85;;
58071;SDS011;60383;46.626;18.866;2023-02-19T11:00:45;22.83;;;15.45;;
58071;SDS011;60383;46.626;18.866;2023-02-19T11:03:12;22.92;;;14.93;;
58071;SDS011;60383;46.626;18.866;2023-02-19T11:06:01;24.70;;;15.93;;
58071;SDS011;60383;46.626;18.866;2023-02-19T11:10:54;20.42;;;13.60;;
58071;SDS011;60383;46.626;18.866;2023-02-19T11:13:40;24.00;;;16.17;;
58071;SDS011;60383;46.626;18.866;2023-02-19T11:16:06;25.52;;;16.23;;
58071;SDS011;60383;46.626;18.866;2023-02-19T11:18:32;22.23;;;13.82;;
58071;SDS011;60383;46.626;18.866;2023-02-19T11:21:03;22.02;;;15.50;;
58071;SDS011;60383;46.626;18.866;2023-02-19T11:23:33;21.80;;;14.90;;
58071;SDS011;60383;46.626;18.866;2023-02-19T11:26:18;19.80;;;13.50;;
58071;SDS011;60383;46.626;18.866;2023-02-19T11:28:57;23.70;;;15.45;;
58071;SDS011;60383;46.626;18.866;2023-02-19T11:31:29;21.23;;;13.88;;
58071;SDS011;60383;46.626;18.866;2023-02-19T11:33:57;20.40;;;14.73;;
58071;SDS011;60383;46.626;18.866;2023-02-19T11:36:34;21.33;;;15.63;;
58071;SDS011;60383;46.626;18.866;2023-02-19T11:53:03;23.23;;;13.82;;
58071;SDS011;60383;46.626;18.866;2023-02-19T12:06:53;18.20;;;13.85;;
58071;SDS011;60383;46.626;18.866;2023-02-19T12:25:43;20.10;;;13.45;;
58071;SDS011;60383;46.626;18.866;2023-02-19T12:39:43;19.77;;;13.90;;
58071;SDS011;60383;46.626;18.866;2023-02-19T12:42:55;21.00;;;13.95;;
58071;SDS011;60383;46.626;18.866;2023-02-19T12:45:28;19.33;;;13.40;;
58071;SDS011;60383;46.626;18.866;2023-02-19T12:48:00;19.65;;;13.32;;
58071;SDS011;60383;46.626;18.866;2023-02-19T12:50:28;19.58;;;13.50;;
58071;SDS011;60383;46.626;18.866;2023-02-19T12:52:57;19.77;;;13.55;;
58071;SDS011;60383;46.626;18.866;2023-02-19T12:55:29;19.23;;;12.88;;
58071;SDS011;60383;46.626;18.866;2023-02-19T12:57:58;18.40;;;13.38;;
58071;SDS011;60383;46.626;18.866;2023-02-19T13:03:08;16.77;;;12.65;;
58071;SDS011;60383;46.626;18.866;2023-02-19T13:05:58;17.80;;;12.48;;
58071;SDS011;60383;46.626;18.866;2023-02-19T13:08:54;17.58;;;12.38;;
58071;SDS011;60383;46.626;18.866;2023-02-19T13:11:43;17.13;;;12.93;;
58071;SDS011;60383;46.626;18.866;2023-02-19T13:14:22;15.65;;;11.70;;
58071;SDS011;60383;46.626;18.866;2023-02-19T13:17:16;17.27;;;11.68;;
58071;SDS011;60383;46.626;18.866;2023-02-19T13:19:47;16.25;;;11.60;;
58071;SDS011;60383;46.626;18.866;2023-02-19T13:22:36;19.73;;;12.50;;
58071;SDS011;60383;46.626;18.866;2023-02-19T13:25:33;19.77;;;12.82;;
58071;SDS011;60383;46.626;18.866;2023-02-19T13:36:56;18.83;;;12.98;;
58071;SDS011;60383;46.626;18.866;2023-02-19T13:39:23;21.33;;;12.38;;
58071;SDS011;60383;46.626;18.866;2023-02-19T13:44:18;15.02;;;11.20;;
58071;SDS011;60383;46.626;18.866;2023-02-19T13:46:45;16.30;;;12.50;;
58071;SDS011;60383;46.626;18.866;2023-02-19T13:51:57;16.23;;;12.27;;
58071;SDS011;60383;46.626;18.866;2023-02-19T13:54:30;16.73;;;11.93;;
58071;SDS011;60383;46.626;18.866;2023-02-19T13:57:33;18.45;;;13.38;;
58071;SDS011;60383;46.626;18.866;2023-02-19T13:59:53;17.65;;;12.73;;
58071;SDS011;60383;46.626;18.866;2023-02-19T14:04:50;15.85;;;11.63;;
58071;SDS011;60383;46.626;18.866;2023-02-19T14:09:44;17.10;;;11.55;;
58071;SDS011;60383;46.626;18.866;2023-02-19T14:14:39;14.85;;;10.63;;
58071;SDS011;60383;46.626;18.866;2023-02-19T14:25:17;12.68;;;9.27;;
58071;SDS011;60383;46.626;18.866;2023-02-19T14:27:43;13.05;;;8.57;;
58071;SDS011;60383;46.626;18.866;2023-02-19T14:30:10;15.23;;;11.02;;
58071;SDS011;60383;46.626;18.866;2023-02-19T14:32:38;13.98;;;10.20;;
58071;SDS011;60383;46.626;18.866;2023-02-19T14:35:05;9.93;;;6.47;;
58071;SDS011;60383;46.626;18.866;2023-02-19T14:37:30;8.63;;;5.82;;
58071;SDS011;60383;46.626;18.866;2023-02-19T14:39:56;9.25;;;6.22;;
58071;SDS011;60383;46.626;18.866;2023-02-19T14:42:23;9.68;;;7.60;;
58071;SDS011;60383;46.626;18.866;2023-02-19T14:44:56;10.20;;;6.70;;
58071;SDS011;60383;46.626;18.866;2023-02-19T14:47:26;9.70;;;6.32;;
58071;SDS011;60383;46.626;18.866;2023-02-19T14:50:00;9.70;;;5.93;;
58071;SDS011;60383;46.626;18.866;2023-02-19T14:55:26;9.68;;;6.15;;
58071;SDS011;60383;46.626;18.866;2023-02-19T14:57:56;7.32;;;4.57;;
58071;SDS011;60383;46.626;18.866;2023-02-19T15:00:25;10.35;;;6.15;;
58071;SDS011;60383;46.626;18.866;2023-02-19T15:02:52;11.82;;;7.22;;
58071;SDS011;60383;46.626;18.866;2023-02-19T15:05:25;10.65;;;7.22;;
58071;SDS011;60383;46.626;18.866;2023-02-19T15:07:52;11.63;;;8.50;;
58071;SDS011;60383;46.626;18.866;2023-02-19T15:10:21;7.53;;;4.68;;
58071;SDS011;60383;46.626;18.866;2023-02-19T15:12:51;7.80;;;5.05;;
58071;SDS011;60383;46.626;18.866;2023-02-19T15:15:23;6.97;;;4.93;;
58071;SDS011;60383;46.626;18.866;2023-02-19T15:17:53;7.82;;;4.78;;
58071;SDS011;60383;46.626;18.866;2023-02-19T15:20:21;7.63;;;5.32;;
58071;SDS011;60383;46.626;18.866;2023-02-19T15:22:50;5.95;;;4.07;;
58071;SDS011;60383;46.626;18.866;2023-02-19T15:25:20;5.68;;;3.10;;
58071;SDS011;60383;46.626;18.866;2023-02-19T15:27:48;5.30;;;3.08;;
58071;SDS011;60383;46.626;18.866;2023-02-19T15:30:18;4.97;;;3.25;;
58071;SDS011;60383;46.626;18.866;2023-02-19T15:32:53;3.83;;;2.60;;
58071;SDS011;60383;46.626;18.866;2023-02-19T15:35:20;5.00;;;2.78;;
58071;SDS011;60383;46.626;18.866;2023-02-19T15:37:48;3.13;;;2.25;;
58071;SDS011;60383;46.626;18.866;2023-02-19T15:40:14;4.32;;;2.80;;
58071;SDS011;60383;46.626;18.866;2023-02-19T15:42:40;2.90;;;2.50;;
58071;SDS011;60383;46.626;18.866;2023-02-19T15:45:15;4.00;;;2.80;;
58071;SDS011;60383;46.626;18.866;2023-02-19T15:50:30;7.70;;;2.85;;
58071;SDS011;60383;46.626;18.866;2023-02-19T15:53:03;5.90;;;3.08;;
58071;SDS011;60383;46.626;18.866;2023-02-19T15:58:18;4.20;;;3.08;;
58071;SDS011;60383;46.626;18.866;2023-02-19T16:01:05;5.18;;;3.42;;
58071;SDS011;60383;46.626;18.866;2023-02-19T16:03:55;5.97;;;4.05;;
58071;SDS011;60383;46.626;18.866;2023-02-19T16:06:22;4.43;;;3.10;;
58071;SDS011;60383;46.626;18.866;2023-02-19T16:13:49;5.55;;;3.50;;
58071;SDS011;60383;46.626;18.866;2023-02-19T16:18:48;5.07;;;2.58;;
58071;SDS011;60383;46.626;18.866;2023-02-19T16:21:17;4.05;;;2.72;;
58071;SDS011;60383;46.626;18.866;2023-02-19T16:23:46;3.42;;;2.17;;
58071;SDS011;60383;46.626;18.866;2023-02-19T16:26:15;4.72;;;2.45;;
58071;SDS011;60383;46.626;18.866;2023-02-19T16:28:41;3.60;;;2.10;;
58071;SDS011;60383;46.626;18.866;2023-02-19T16:31:08;5.05;;;2.55;;
58071;SDS011;60383;46.626;18.866;2023-02-19T16:41:27;1.73;;;1.23;;
58071;SDS011;60383;46.626;18.866;2023-02-19T16:43:53;1.67;;;1.27;;
58071;SDS011;60383;46.626;18.866;2023-02-19T16:46:18;2.78;;;1.30;;
58071;SDS011;60383;46.626;18.866;2023-02-19T16:48:44;2.25;;;1.55;;
58071;SDS011;60383;46.626;18.866;2023-02-19T16:51:10;5.75;;;1.30;;
58071;SDS011;60383;46.626;18.866;2023-02-19T16:53:47;1.67;;;0.90;;
58071;SDS011;60383;46.626;18.866;2023-02-19T16:56:14;2.88;;;0.90;;
58071;SDS011;60383;46.626;18.866;2023-02-19T16:58:42;2.58;;;1.00;;